Terminal Aerodrome Forecast
Issued by NWS South Bend, IN

Home | Current Version | Previous Version | Text Only | Print | Product List | Glossary On
Versions: 1 2 3 4 5 6 7 8 9 10 11 12 13 14
000
FTUS43 KIWX 040500
TAFSBN
TAF
KSBN 040538Z 0406/0506 19011KT P6SM BKN080
      TEMPO 0406/0408 -SHRA
     FM041100 20012KT P6SM BKN080
      TEMPO 0411/0413 6SM -SHRA OVC050
     FM041900 23012G20KT P6SM -SHRA VCTS BKN040CB
     FM050000 30008KT 6SM -SHRA BR SCT025 OVC050=

USA.gov is the U.S. government's official web portal to all federal, state and local government web resources and services.